Time;durP1;ratioP1;P1;durP2;ratioP2;P2;SDS_P1;SDS_P2;PMS_P1;PMS_P2;Temp;Humidity;BMP_temperature;BMP_pressure;BME280_temperature;BME280_humidity;BME280_pressure;Samples;Min_cycle;Max_cycle;Signal;HPM_P1;HPM_P2
2024/01/03 00:01:31;;;;;;;;;;;;;;;17.83;62.83;100527.09;7396776;19;1719;-38
2024/01/03 00:04:00;;;;;;;;;;;;;;;17.90;62.42;100530.06;7396309;19;1227;-37
2024/01/03 00:06:30;;;;;;;;;;;;;;;17.91;62.29;100506.88;7393938;19;1849;-38
2024/01/03 00:08:59;;;;;;;;;;;;;;;17.61;62.59;100508.53;7398178;19;1557;-37
2024/01/03 00:11:30;;;;;;;;;;;;;;;17.51;63.05;100511.13;7397849;19;1462;-38
2024/01/03 00:14:24;;;;;;;;;;;;;;;17.41;63.52;100516.41;7394277;19;1817;-37
2024/01/03 00:16:53;;;;;;;;;;;;;;;17.45;62.94;100514.34;7397236;19;1752;-37
2024/01/03 00:19:23;;;;;;;;;;;;;;;17.66;63.21;100525.84;7396293;19;1777;-38
2024/01/03 00:21:51;;;;;;;;;;;;;;;17.95;62.29;100518.97;7394883;19;1425;-38
2024/01/03 00:24:21;;;;;;;;;;;;;;;17.89;62.35;100520.38;7395052;19;1469;-38
2024/01/03 00:26:49;;;;;;;;;;;;;;;17.81;62.42;100518.31;7391678;19;1863;-38
2024/01/03 00:29:47;;;;;;;;;;;;;;;17.84;62.25;100522.59;7395264;19;1472;-37
2024/01/03 00:32:16;;;;;;;;;;;;;;;17.70;62.60;100523.75;7396002;19;1562;-38
2024/01/03 00:34:44;;;;;;;;;;;;;;;17.52;63.21;100522.66;7380675;19;1548;-38
2024/01/03 00:37:26;;;;;;;;;;;;;;;17.37;63.51;100535.50;7394769;19;1490;-37
2024/01/03 00:39:55;;;;;;;;;;;;;;;17.40;63.29;100522.72;7395756;19;1145;-38
2024/01/03 00:42:23;;;;;;;;;;;;;;;17.62;63.24;100527.06;7394699;19;1787;-38
2024/01/03 00:44:54;;;;;;;;;;;;;;;17.90;62.44;100532.75;7395564;19;1654;-38
2024/01/03 00:47:23;;;;;;;;;;;;;;;17.87;62.61;100533.88;7393489;19;1919;-38
2024/01/03 00:49:53;;;;;;;;;;;;;;;17.82;62.52;100535.22;7394967;19;1902;-38
2024/01/03 00:52:22;;;;;;;;;;;;;;;17.79;62.43;100536.34;7391620;19;1542;-38
2024/01/03 00:54:51;;;;;;;;;;;;;;;17.76;62.17;100541.94;7394664;19;1350;-37
2024/01/03 00:57:19;;;;;;;;;;;;;;;17.66;62.37;100546.38;7395090;19;1745;-37
2024/01/03 00:59:47;;;;;;;;;;;;;;;17.50;62.97;100539.66;7392978;19;1789;-38
2024/01/03 01:02:18;;;;;;;;;;;;;;;17.41;62.93;100519.09;7394571;19;1640;-37
2024/01/03 01:04:47;;;;;;;;;;;;;;;17.56;62.97;100516.06;7394283;19;1455;-38
2024/01/03 01:07:15;;;;;;;;;;;;;;;17.91;62.23;100497.00;7393292;19;1850;-38
2024/01/03 01:09:44;;;;;;;;;;;;;;;17.87;62.25;100509.78;7395540;19;1712;-38
2024/01/03 01:12:12;;;;;;;;;;;;;;;17.82;62.29;100503.13;7394412;19;1350;-38
2024/01/03 01:14:40;;;;;;;;;;;;;;;17.72;62.45;100495.03;7395254;19;1791;-38
2024/01/03 01:17:09;;;;;;;;;;;;;;;17.72;62.23;100494.19;7394660;19;1422;-37
2024/01/03 01:19:40;;;;;;;;;;;;;;;17.59;62.45;100502.47;7394600;19;1429;-38
2024/01/03 01:22:09;;;;;;;;;;;;;;;17.49;62.58;100523.78;7393620;19;1555;-38
2024/01/03 01:24:37;;;;;;;;;;;;;;;17.54;62.70;100493.97;7393283;19;1465;-38
2024/01/03 01:27:05;;;;;;;;;;;;;;;17.56;62.50;100497.34;7390551;19;1873;-37
2024/01/03 01:29:34;;;;;;;;;;;;;;;17.79;61.96;100501.56;7395845;19;1232;-37
2024/01/03 01:32:02;;;;;;;;;;;;;;;17.85;62.23;100511.75;7394058;19;1858;-37
2024/01/03 01:34:31;;;;;;;;;;;;;;;17.78;62.13;100499.84;7376618;19;1533;-39
2024/01/03 01:37:02;;;;;;;;;;;;;;;17.78;61.90;100521.25;7393287;19;1644;-49
2024/01/03 01:39:30;;;;;;;;;;;;;;;17.76;62.06;100515.19;7394086;19;1117;-39
2024/01/03 01:41:58;;;;;;;;;;;;;;;17.58;62.39;100514.97;7393766;19;1433;-37
2024/01/03 01:44:27;;;;;;;;;;;;;;;17.32;62.93;100490.47;7393061;19;1890;-36
2024/01/03 01:46:55;;;;;;;;;;;;;;;17.37;63.08;100506.09;7392774;19;1877;-39
2024/01/03 01:49:24;;;;;;;;;;;;;;;17.57;62.38;100501.75;7393468;19;1413;-37
2024/01/03 01:51:53;;;;;;;;;;;;;;;17.80;62.10;100500.56;7392391;19;1718;-37
2024/01/03 01:54:24;;;;;;;;;;;;;;;17.80;61.95;100500.56;7391848;19;1421;-38
2024/01/03 01:56:52;;;;;;;;;;;;;;;17.72;61.83;100491.53;7390748;19;2467;-38
2024/01/03 01:59:22;;;;;;;;;;;;;;;17.73;62.13;100499.44;7391675;19;1535;-37
2024/01/03 02:01:51;;;;;;;;;;;;;;;17.56;62.32;100498.19;7393253;19;1685;-38
2024/01/03 02:04:19;;;;;;;;;;;;;;;17.53;62.13;100486.91;7393016;19;1238;-37
2024/01/03 02:06:48;;;;;;;;;;;;;;;17.50;62.32;100478.19;7391116;19;1833;-37
2024/01/03 02:09:16;;;;;;;;;;;;;;;17.53;62.60;100455.72;7393165;19;1819;-37
2024/01/03 02:11:50;;;;;;;;;;;;;;;17.78;62.07;100456.22;7393019;19;1354;-37
2024/01/03 02:14:18;;;;;;;;;;;;;;;17.76;61.79;100456.34;7393039;19;1812;-37
2024/01/03 02:16:47;;;;;;;;;;;;;;;17.67;62.16;100454.50;7392172;19;1524;-38
2024/01/03 02:19:15;;;;;;;;;;;;;;;17.67;61.86;100458.00;7392320;19;1914;-37
2024/01/03 02:21:46;;;;;;;;;;;;;;;17.67;61.88;100467.88;7393107;19;1709;-37
2024/01/03 02:24:14;;;;;;;;;;;;;;;17.44;62.26;100454.66;7392060;19;1597;-37
2024/01/03 02:26:42;;;;;;;;;;;;;;;17.38;62.45;100420.44;7391099;19;1853;-38
2024/01/03 02:29:11;;;;;;;;;;;;;;;17.46;62.49;100425.97;7390410;19;1298;-38
2024/01/03 02:31:39;;;;;;;;;;;;;;;17.65;62.07;100427.88;7392775;19;1651;-38
2024/01/03 02:34:08;;;;;;;;;;;;;;;17.72;61.71;100422.84;7378134;19;1909;-37
2024/01/03 02:36:36;;;;;;;;;;;;;;;17.68;61.77;100432.13;7392653;19;1594;-37
2024/01/03 02:39:09;;;;;;;;;;;;;;;17.67;61.83;100425.09;7391946;19;1836;-38
2024/01/03 02:41:37;;;;;;;;;;;;;;;17.61;61.82;100414.94;7392085;19;1601;-38
2024/01/03 02:44:06;;;;;;;;;;;;;;;17.49;61.93;100433.72;7392243;19;1720;-37
2024/01/03 02:46:34;;;;;;;;;;;;;;;17.47;62.04;100440.19;7390256;19;1858;-37
2024/01/03 02:49:02;;;;;;;;;;;;;;;17.53;62.06;100426.28;7391297;19;1820;-38
2024/01/03 02:51:31;;;;;;;;;;;;;;;17.69;61.77;100413.25;7397410;19;1958;-38
2024/01/03 02:53:59;;;;;;;;;;;;;;;17.78;61.70;100433.00;7397820;19;1735;-38
2024/01/03 02:56:30;;;;;;;;;;;;;;;17.69;61.90;100420.44;7396907;19;1757;-37
2024/01/03 02:58:59;;;;;;;;;;;;;;;17.67;61.64;100427.75;7395559;19;1365;-37
2024/01/03 03:01:27;;;;;;;;;;;;;;;17.67;61.69;100425.09;7395966;19;2018;-38
2024/01/03 03:03:55;;;;;;;;;;;;;;;17.57;61.74;100433.06;7396303;19;1680;-37
2024/01/03 03:06:23;;;;;;;;;;;;;;;17.47;61.84;100414.31;7395115;19;1858;-37
2024/01/03 03:08:52;;;;;;;;;;;;;;;17.56;62.05;100422.50;7396992;19;1007;-37
2024/01/03 03:11:20;;;;;;;;;;;;;;;17.65;61.87;100400.31;7395845;19;1832;-37
2024/01/03 03:13:51;;;;;;;;;;;;;;;17.68;61.73;100397.34;7395844;19;1812;-38
2024/01/03 03:16:19;;;;;;;;;;;;;;;17.68;61.73;100408.03;7395797;19;1452;-37
2024/01/03 03:18:48;;;;;;;;;;;;;;;17.61;61.65;100402.41;7395470;19;1861;-38
2024/01/03 03:21:16;;;;;;;;;;;;;;;17.59;61.77;100403.53;7394534;19;1647;-38
2024/01/03 03:23:44;;;;;;;;;;;;;;;17.45;61.80;100400.22;7394034;19;1570;-37
2024/01/03 03:26:13;;;;;;;;;;;;;;;17.33;62.19;100393.28;7395152;19;1857;-37
2024/01/03 03:28:41;;;;;;;;;;;;;;;17.47;62.32;100398.28;7395530;19;1464;-38
2024/01/03 03:31:12;;;;;;;;;;;;;;;17.68;61.70;100387.50;7395779;19;1662;-38
2024/01/03 03:33:41;;;;;;;;;;;;;;;17.71;61.52;100373.03;7394689;19;1784;-38
2024/01/03 03:36:16;;;;;;;;;;;;;;;17.67;61.64;100366.25;7381209;19;1490;-38
2024/01/03 03:38:44;;;;;;;;;;;;;;;17.55;61.54;100375.34;7393907;19;1635;-38
2024/01/03 03:41:13;;;;;;;;;;;;;;;17.50;61.67;100355.22;7395537;19;1919;-38
2024/01/03 03:43:42;;;;;;;;;;;;;;;17.32;62.08;100356.84;7394192;19;1947;-38
2024/01/03 03:46:14;;;;;;;;;;;;;;;17.27;62.22;100354.56;7394514;19;1856;-37
2024/01/03 03:48:43;;;;;;;;;;;;;;;17.61;61.78;100364.13;7394756;19;1452;-38
2024/01/03 03:51:11;;;;;;;;;;;;;;;17.87;61.23;100346.63;7394809;19;1662;-37
2024/01/03 03:53:39;;;;;;;;;;;;;;;17.81;61.31;100359.69;7394291;19;1556;-37
2024/01/03 03:56:08;;;;;;;;;;;;;;;17.65;61.58;100366.38;7237535;19;3040922;-38
2024/01/03 03:58:36;;;;;;;;;;;;;;;17.58;61.56;100372.41;7396451;19;1476;-38
2024/01/03 04:01:05;;;;;;;;;;;;;;;17.42;61.76;100354.22;7396763;19;1224;-37
2024/01/03 04:03:36;;;;;;;;;;;;;;;17.54;61.90;100361.13;7397569;19;1669;-38
2024/01/03 04:06:04;;;;;;;;;;;;;;;17.97;61.00;100367.19;7396082;19;1468;-37
2024/01/03 04:08:32;;;;;;;;;;;;;;;18.35;60.26;100373.56;7393376;19;1870;-38
2024/01/03 04:11:01;;;;;;;;;;;;;;;18.34;60.18;100372.69;7396652;19;1756;-38
2024/01/03 04:13:29;;;;;;;;;;;;;;;18.12;60.50;100344.38;7396686;19;1445;-38
2024/01/03 04:15:55;;;;;;;;;;;;;;;17.89;60.85;100355.34;7395873;19;1483;-38
2024/01/03 04:18:23;;;;;;;;;;;;;;;17.92;61.15;100350.72;7395852;19;1756;-38
2024/01/03 04:20:54;;;;;;;;;;;;;;;18.13;60.64;100364.81;7394259;19;1480;-38
2024/01/03 04:23:22;;;;;;;;;;;;;;;18.33;60.06;100362.16;7395872;19;1538;-38
2024/01/03 04:25:50;;;;;;;;;;;;;;;18.19;60.33;100364.25;7395708;19;1721;-40
2024/01/03 04:28:19;;;;;;;;;;;;;;;17.95;60.94;100358.47;7393661;19;1845;-38
2024/01/03 04:30:47;;;;;;;;;;;;;;;17.93;61.07;100355.09;7395333;19;1548;-38
2024/01/03 04:33:16;;;;;;;;;;;;;;;18.13;60.84;100355.94;7397267;19;1058;-38
2024/01/03 04:35:44;;;;;;;;;;;;;;;18.31;60.27;100358.78;7380264;19;1827;-38
2024/01/03 04:38:15;;;;;;;;;;;;;;;18.25;60.28;100357.50;7393892;19;1858;-38
2024/01/03 04:40:43;;;;;;;;;;;;;;;17.97;60.64;100338.59;7393851;19;1650;-38
2024/01/03 04:43:12;;;;;;;;;;;;;;;17.89;61.19;100352.69;7396268;19;1647;-38
2024/01/03 04:45:40;;;;;;;;;;;;;;;18.15;60.96;100345.94;7395367;19;1503;-39
2024/01/03 04:48:09;;;;;;;;;;;;;;;18.39;60.13;100329.47;7393305;19;1895;-38
2024/01/03 04:50:37;;;;;;;;;;;;;;;18.38;60.01;100333.13;7392494;19;1534;-42
2024/01/03 04:53:06;;;;;;;;;;;;;;;18.12;60.63;100344.38;7395592;19;1134;-38
2024/01/03 04:55:37;;;;;;;;;;;;;;;18.06;61.24;100328.88;7394826;19;1469;-38
2024/01/03 04:58:05;;;;;;;;;;;;;;;18.42;60.97;100343.41;7395126;19;1769;-40
2024/01/03 05:00:34;;;;;;;;;;;;;;;18.58;60.10;100348.19;7392751;19;1317;-38
2024/01/03 05:03:03;;;;;;;;;;;;;;;18.46;61.44;100351.97;7388477;19;1460;-37
2024/01/03 05:05:31;;;;;;;;;;;;;;;18.37;61.90;100347.50;7390306;19;1404;-38
2024/01/03 05:07:59;;;;;;;;;;;;;;;18.35;62.04;100344.97;7392714;19;1850;-38
2024/01/03 05:10:27;;;;;;;;;;;;;;;18.27;62.41;100340.31;7393480;19;1633;-38
2024/01/03 05:12:58;;;;;;;;;;;;;;;18.29;62.68;100351.72;7392105;19;1152;-38
2024/01/03 05:15:27;;;;;;;;;;;;;;;18.36;62.48;100349.31;7395785;19;1760;-38
2024/01/03 05:17:55;;;;;;;;;;;;;;;18.43;62.51;100350.44;7393151;19;1583;-38
2024/01/03 05:20:23;;;;;;;;;;;;;;;18.42;62.60;100346.09;7393511;19;1568;-39
2024/01/03 05:22:51;;;;;;;;;;;;;;;18.43;62.65;100344.25;7394358;19;1796;-38
2024/01/03 05:25:20;;;;;;;;;;;;;;;18.49;62.68;100349.88;7394518;19;1733;-43
2024/01/03 05:27:48;;;;;;;;;;;;;;;18.55;62.53;100361.84;7393223;19;1852;-38
2024/01/03 05:30:19;;;;;;;;;;;;;;;18.51;62.56;100348.91;7389853;19;1437;-38
2024/01/03 05:32:48;;;;;;;;;;;;;;;18.55;62.50;100364.53;7395951;19;1010;-38
2024/01/03 05:35:16;;;;;;;;;;;;;;;18.57;62.16;100354.53;7377129;19;1835;-38
2024/01/03 05:37:44;;;;;;;;;;;;;;;18.49;62.44;100336.50;7391125;19;1336;-38
2024/01/03 05:40:15;;;;;;;;;;;;;;;18.62;62.21;100352.28;7392729;19;1671;-38
2024/01/03 05:42:43;;;;;;;;;;;;;;;18.62;61.73;100352.28;7392456;19;1859;-38
2024/01/03 05:45:12;;;;;;;;;;;;;;;18.64;61.56;100334.22;7391797;19;1443;-38
2024/01/03 05:47:43;;;;;;;;;;;;;;;18.79;61.27;100328.41;7390045;19;1904;-37
2024/01/03 05:50:11;;;;;;;;;;;;;;;18.91;61.01;100335.31;7390166;19;1322;-38
2024/01/03 05:52:40;;;;;;;;;;;;;;;18.90;60.98;100333.63;7392008;19;1429;-38
2024/01/03 05:55:09;;;;;;;;;;;;;;;18.72;60.87;100338.88;7389866;19;1358;-37
2024/01/03 05:57:37;;;;;;;;;;;;;;;18.83;60.47;100336.03;7392382;19;1831;-37
2024/01/03 06:00:06;;;;;;;;;;;;;;;18.92;60.05;100342.38;7391322;19;1844;-37
2024/01/03 06:02:34;;;;;;;;;;;;;;;18.85;59.83;100327.84;7391391;19;1841;-37
2024/01/03 06:05:05;;;;;;;;;;;;;;;18.88;59.73;100335.63;7393617;19;1743;-37
2024/01/03 06:07:34;;;;;;;;;;;;;;;18.94;59.81;100334.16;7389824;19;1877;-37
2024/01/03 06:10:02;;;;;;;;;;;;;;;18.96;59.73;100327.69;7388241;19;1958;-38
2024/01/03 06:12:30;;;;;;;;;;;;;;;18.97;59.39;100315.97;7387834;19;1255;-42
2024/01/03 06:14:59;;;;;;;;;;;;;;;18.83;59.84;100324.47;7388880;19;1376;-38
2024/01/03 06:17:27;;;;;;;;;;;;;;;18.90;59.39;100324.75;7389549;19;1421;-41
2024/01/03 06:19:55;;;;;;;;;;;;;;;18.93;59.26;100311.91;7393081;19;1054;-41
2024/01/03 06:22:26;;;;;;;;;;;;;;;19.07;58.92;100330.19;7391963;19;1429;-41
2024/01/03 06:24:54;;;;;;;;;;;;;;;19.13;58.81;100330.59;7389866;19;1567;-41
2024/01/03 06:27:23;;;;;;;;;;;;;;;19.14;59.05;100321.53;7389716;19;1857;-41
2024/01/03 06:29:51;;;;;;;;;;;;;;;19.16;59.01;100327.59;7391774;19;1144;-41
2024/01/03 06:32:19;;;;;;;;;;;;;;;19.17;58.90;100323.94;7391366;19;1428;-41
2024/01/03 06:34:48;;;;;;;;;;;;;;;19.08;59.33;100331.88;7390906;19;1523;-41
2024/01/03 06:37:17;;;;;;;;;;;;;;;19.09;59.36;100324.69;7377405;19;1480;-41
2024/01/03 06:39:48;;;;;;;;;;;;;;;19.06;59.26;100327.66;7391509;19;1097;-41
2024/01/03 06:42:16;;;;;;;;;;;;;;;19.08;59.57;100326.53;7391166;19;1856;-41
2024/01/03 06:44:44;;;;;;;;;;;;;;;19.10;59.38;100331.75;7392723;19;1177;-41
2024/01/03 06:47:13;;;;;;;;;;;;;;;19.15;59.21;100317.88;7391173;19;1864;-41
2024/01/03 06:49:41;;;;;;;;;;;;;;;19.15;59.17;100325.94;7390631;19;1662;-41
2024/01/03 06:52:09;;;;;;;;;;;;;;;19.14;59.29;100345.66;7390473;19;1468;-41
2024/01/03 06:54:38;;;;;;;;;;;;;;;18.99;59.74;100318.50;7391085;19;1200;-38
2024/01/03 06:57:09;;;;;;;;;;;;;;;18.78;60.10;100332.06;7391689;19;1204;-41
2024/01/03 06:59:38;;;;;;;;;;;;;;;18.56;60.60;100341.28;7390802;19;1511;-40
2024/01/03 07:02:06;;;;;;;;;;;;;;;18.37;60.72;100332.28;7391090;19;1578;-40
2024/01/03 07:04:34;;;;;;;;;;;;;;;18.46;61.01;100346.63;7391791;19;1266;-40
2024/01/03 07:07:03;;;;;;;;;;;;;;;18.65;60.77;100340.41;7391225;19;1571;-40
2024/01/03 07:09:31;;;;;;;;;;;;;;;18.97;59.79;100340.09;7388167;19;1840;-40
2024/01/03 07:11:59;;;;;;;;;;;;;;;18.86;59.56;100321.50;7390909;19;1172;-40
2024/01/03 07:14:30;;;;;;;;;;;;;;;19.12;59.24;100324.41;7391093;19;1136;-40
2024/01/03 07:16:58;;;;;;;;;;;;;;;19.01;59.61;100325.41;7390687;19;1809;-40
2024/01/03 07:19:27;;;;;;;;;;;;;;;18.80;59.95;100322.06;7389212;19;1606;-40
2024/01/03 07:21:55;;;;;;;;;;;;;;;18.59;60.72;100322.25;7390904;19;1673;-40
2024/01/03 07:24:23;;;;;;;;;;;;;;;18.43;60.92;100312.13;7388540;19;1517;-40
2024/01/03 07:26:52;;;;;;;;;;;;;;;18.42;61.00;100302.41;7389598;19;1220;-39
2024/01/03 07:29:20;;;;;;;;;;;;;;;18.49;60.63;100282.09;7387617;19;1848;-40
2024/01/03 07:31:51;;;;;;;;;;;;;;;18.96;59.78;100306.25;7392223;19;1215;-39
2024/01/03 07:34:19;;;;;;;;;;;;;;;19.11;59.40;100329.91;7390443;19;1263;-39
2024/01/03 07:36:49;;;;;;;;;;;;;;;18.99;59.48;100305.94;7367190;19;1507;-39
2024/01/03 07:39:17;;;;;;;;;;;;;;;18.78;60.16;100321.34;7393502;19;1562;-39
2024/01/03 07:41:46;;;;;;;;;;;;;;;18.52;60.41;100330.00;7396944;19;1659;-39
2024/01/03 07:44:14;;;;;;;;;;;;;;;18.40;60.61;100305.22;7396405;19;2065;-39
2024/01/03 07:46:42;;;;;;;;;;;;;;;18.49;60.76;100330.28;7396227;19;1641;-40
2024/01/03 07:49:13;;;;;;;;;;;;;;;18.72;60.29;100327.28;7394078;19;1882;-39
2024/01/03 07:51:42;;;;;;;;;;;;;;;18.85;60.12;100309.09;7396284;19;1716;-39
2024/01/03 07:54:10;;;;;;;;;;;;;;;18.72;60.10;100314.75;7395606;19;1232;-40
2024/01/03 07:56:38;;;;;;;;;;;;;;;18.55;60.96;100329.72;7396927;19;1480;-39
2024/01/03 07:59:06;;;;;;;;;;;;;;;18.49;61.11;100320.41;7395987;19;1523;-40
2024/01/03 08:01:35;;;;;;;;;;;;;;;18.78;60.59;100314.19;7396628;19;1243;-40
2024/01/03 08:04:04;;;;;;;;;;;;;;;19.00;60.42;100312.16;7396780;19;1437;-40
2024/01/03 08:06:35;;;;;;;;;;;;;;;18.90;60.58;100324.75;7395970;19;1230;-40
2024/01/03 08:09:04;;;;;;;;;;;;;;;18.62;61.12;100320.13;7394730;19;1845;-40
2024/01/03 08:11:32;;;;;;;;;;;;;;;18.58;62.11;100333.94;7396653;19;1267;-40
2024/01/03 08:14:00;;;;;;;;;;;;;;;18.58;62.17;100340.16;7396425;19;1590;-39
2024/01/03 08:16:28;;;;;;;;;;;;;;;18.89;61.91;100329.25;7396279;19;1330;-40
2024/01/03 08:18:57;;;;;;;;;;;;;;;18.86;62.87;100333.09;7396619;19;1177;-39
2024/01/03 08:21:25;;;;;;;;;;;;;;;18.79;63.76;100323.06;7395793;19;1444;-37
2024/01/03 08:23:56;;;;;;;;;;;;;;;18.75;63.52;100322.50;7384761;19;1521;-38
2024/01/03 08:26:24;;;;;;;;;;;;;;;18.77;61.94;100315.16;7390786;19;1366;-38
2024/01/03 08:28:53;;;;;;;;;;;;;;;18.99;61.48;100310.47;7390969;19;1953;-39
2024/01/03 08:31:21;;;;;;;;;;;;;;;19.00;61.46;100312.16;7393651;19;1354;-38
2024/01/03 08:33:49;;;;;;;;;;;;;;;19.00;61.46;100312.16;7394287;19;1496;-38
2024/01/03 08:36:18;;;;;;;;;;;;;;;18.77;61.76;100296.41;7378382;19;1441;-39
2024/01/03 08:38:46;;;;;;;;;;;;;;;18.53;62.85;100294.22;7391529;19;1489;-39
2024/01/03 08:41:18;;;;;;;;;;;;;;;18.56;62.89;100277.00;7394808;19;1453;-39
2024/01/03 08:43:47;;;;;;;;;;;;;;;18.87;62.29;100261.59;7391665;19;1472;-39
2024/01/03 08:46:15;;;;;;;;;;;;;;;18.80;62.83;100269.38;7394535;19;1378;-39
2024/01/03 08:48:44;;;;;;;;;;;;;;;18.72;63.13;100271.03;7391446;19;1938;-39
2024/01/03 08:51:17;;;;;;;;;;;;;;;18.61;63.21;100280.09;7393106;19;1587;-38
2024/01/03 08:53:45;;;;;;;;;;;;;;;18.45;63.48;100275.34;7392543;19;1796;-41
2024/01/03 08:56:14;;;;;;;;;;;;;;;18.42;63.46;100286.31;7392585;19;1358;-39
2024/01/03 08:58:46;;;;;;;;;;;;;;;18.66;63.00;100265.28;7388539;19;1315;-39
2024/01/03 09:01:17;;;;;;;;;;;;;;;19.18;61.70;100253.25;7390871;19;1725;-38
2024/01/03 09:03:46;;;;;;;;;;;;;;;19.23;61.40;100257.19;7391298;19;1999;-39
2024/01/03 09:06:15;;;;;;;;;;;;;;;18.97;62.29;100270.41;7393149;19;1646;-38
2024/01/03 09:08:43;;;;;;;;;;;;;;;18.64;62.98;100250.34;7391597;19;1845;-38
2024/01/03 09:11:12;;;;;;;;;;;;;;;18.56;63.05;100252.91;7392197;19;1235;-39
2024/01/03 09:13:41;;;;;;;;;;;;;;;18.79;62.52;100245.38;7391856;19;1274;-38
2024/01/03 09:16:13;;;;;;;;;;;;;;;19.00;62.15;100246.03;7391705;19;1487;-38
2024/01/03 09:18:42;;;;;;;;;;;;;;;19.04;61.83;100235.84;7392137;19;1184;-38
2024/01/03 09:21:10;;;;;;;;;;;;;;;18.84;62.34;100229.72;7392790;19;1719;-39
2024/01/03 09:23:38;;;;;;;;;;;;;;;18.65;62.90;100228.78;7391687;19;1207;-39
2024/01/03 09:26:07;;;;;;;;;;;;;;;18.50;63.46;100224.88;7392228;19;1607;-39
2024/01/03 09:28:37;;;;;;;;;;;;;;;18.61;63.16;100227.38;7392130;19;1859;-39
2024/01/03 09:31:05;;;;;;;;;;;;;;;18.88;62.77;100223.09;7393013;19;1531;-39
2024/01/03 09:33:36;;;;;;;;;;;;;;;18.97;62.44;100221.34;7391491;19;1795;-37
2024/01/03 09:36:05;;;;;;;;;;;;;;;18.86;62.85;100236.63;7375535;19;1755;-39
2024/01/03 09:38:33;;;;;;;;;;;;;;;18.63;63.11;100236.13;7391184;19;1740;-39
2024/01/03 09:41:01;;;;;;;;;;;;;;;18.49;63.75;100236.59;7391695;19;1439;-39
2024/01/03 09:43:31;;;;;;;;;;;;;;;18.66;62.89;100243.88;7389962;19;1800;-39
2024/01/03 09:46:00;;;;;;;;;;;;;;;18.83;62.49;100249.47;7391322;19;1409;-39
2024/01/03 09:48:28;;;;;;;;;;;;;;;19.04;62.40;100220.63;7392097;19;1850;-38
2024/01/03 09:51:01;;;;;;;;;;;;;;;18.93;62.34;100234.19;7392376;19;1736;-39
2024/01/03 09:53:31;;;;;;;;;;;;;;;18.63;62.95;100225.41;7390249;19;1499;-39
2024/01/03 09:55:59;;;;;;;;;;;;;;;18.50;63.39;100240.94;7391582;19;1450;-39
2024/01/03 09:58:28;;;;;;;;;;;;;;;18.57;63.31;100226.00;7391333;19;1113;-39
2024/01/03 10:00:56;;;;;;;;;;;;;;;18.79;62.92;100227.50;7392959;19;948;-38
2024/01/03 10:03:24;;;;;;;;;;;;;;;18.96;62.54;100215.16;7391833;19;1906;-39
2024/01/03 10:06:09;;;;;;;;;;;;;;;18.84;62.80;100232.41;7390843;19;1504;-39
2024/01/03 10:08:40;;;;;;;;;;;;;;;18.62;63.11;100228.22;7390002;19;1854;-37
2024/01/03 10:11:22;;;;;;;;;;;;;;;18.47;63.67;100219.81;7388903;19;1905;-39
2024/01/03 10:13:51;;;;;;;;;;;;;;;18.65;63.01;100202.00;7389934;19;1541;-39
2024/01/03 10:16:26;;;;;;;;;;;;;;;18.91;62.50;100212.06;7392323;19;1493;-38
2024/01/03 10:19:11;;;;;;;;;;;;;;;18.92;62.57;100210.22;7390682;19;1543;-38
2024/01/03 10:21:41;;;;;;;;;;;;;;;18.65;63.03;100211.88;7389281;19;1572;-38
2024/01/03 10:24:11;;;;;;;;;;;;;;;18.42;63.47;100197.97;7388966;19;1489;-39
2024/01/03 10:26:40;;;;;;;;;;;;;;;18.30;63.64;100218.72;7390942;19;1594;-38
2024/01/03 10:29:12;;;;;;;;;;;;;;;18.39;63.25;100193.78;7387606;19;1841;-39
2024/01/03 10:31:40;;;;;;;;;;;;;;;18.60;62.81;100211.44;7390885;19;1399;-40
2024/01/03 10:34:12;;;;;;;;;;;;;;;18.60;62.78;100198.94;7391741;19;1981;-40
2024/01/03 10:36:41;;;;;;;;;;;;;;;18.78;62.58;100195.44;7378535;19;1539;-40
2024/01/03 10:39:13;;;;;;;;;;;;;;;18.77;62.63;100186.59;7390755;19;1469;-40
2024/01/03 10:41:41;;;;;;;;;;;;;;;18.71;62.66;100176.47;7393948;19;1043;-40
2024/01/03 10:44:11;;;;;;;;;;;;;;;18.72;62.69;100179.97;7392393;19;1495;-39
2024/01/03 10:46:39;;;;;;;;;;;;;;;18.83;62.65;100185.19;7391829;19;1525;-40
2024/01/03 10:49:08;;;;;;;;;;;;;;;18.86;62.28;100177.69;7391697;19;1881;-39
2024/01/03 10:51:40;;;;;;;;;;;;;;;18.81;62.19;100188.00;7391795;19;1500;-40
2024/01/03 10:54:09;;;;;;;;;;;;;;;18.76;62.33;100179.56;7390381;19;1909;-39
2024/01/03 10:56:41;;;;;;;;;;;;;;;18.76;62.44;100174.19;7391682;19;1258;-39
2024/01/03 10:59:11;;;;;;;;;;;;;;;18.77;62.49;100172.34;7390130;19;1456;-39
2024/01/03 11:01:45;;;;;;;;;;;;;;;18.76;62.44;100171.53;7391661;19;1534;-39
2024/01/03 11:04:20;;;;;;;;;;;;;;;18.76;62.20;100160.81;7392087;19;1367;-39
2024/01/03 11:06:54;;;;;;;;;;;;;;;18.78;62.18;100168.66;7389052;19;1590;-39
2024/01/03 11:09:22;;;;;;;;;;;;;;;18.82;62.37;100170.09;7389187;19;1851;-40
2024/01/03 11:12:07;;;;;;;;;;;;;;;18.74;62.46;100167.28;7393912;19;1263;-40
2024/01/03 11:14:35;;;;;;;;;;;;;;;18.73;62.50;100169.13;7397408;19;1321;-39
2024/01/03 11:17:05;;;;;;;;;;;;;;;18.68;62.43;100166.03;7395682;19;1871;-39
2024/01/03 11:19:34;;;;;;;;;;;;;;;18.72;62.44;100174.63;7394597;19;1748;-39
2024/01/03 11:22:04;;;;;;;;;;;;;;;18.74;62.49;100176.19;7396043;19;1758;-39
2024/01/03 11:24:53;;;;;;;;;;;;;;;18.80;62.22;100167.59;7394225;19;1149;-39
2024/01/03 11:27:30;;;;;;;;;;;;;;;18.91;62.12;100169.19;7395146;19;1407;-39
2024/01/03 11:29:56;;;;;;;;;;;;;;;18.96;61.74;100172.28;7393873;19;1855;-39
2024/01/03 11:32:35;;;;;;;;;;;;;;;19.03;61.42;100162.63;7396925;19;1560;-39
2024/01/03 11:35:04;;;;;;;;;;;;;;;19.00;61.65;100154.91;7395682;19;1379;-39
2024/01/03 11:37:39;;;;;;;;;;;;;;;19.08;61.41;100149.66;7380973;19;1535;-40
2024/01/03 11:40:10;;;;;;;;;;;;;;;19.08;61.29;100154.16;7395285;19;1510;-39
2024/01/03 11:42:41;;;;;;;;;;;;;;;19.14;61.42;100153.56;7395912;19;1505;-39
2024/01/03 11:45:08;;;;;;;;;;;;;;;19.14;61.17;100144.66;7393927;19;1195;-39
2024/01/03 11:47:37;;;;;;;;;;;;;;;19.12;60.93;100149.31;7393421;19;1424;-39
2024/01/03 11:50:08;;;;;;;;;;;;;;;19.17;61.19;100147.03;7392231;19;1884;-39
2024/01/03 11:52:37;;;;;;;;;;;;;;;19.11;61.20;100136.94;7393711;19;1222;-39
2024/01/03 11:55:05;;;;;;;;;;;;;;;19.16;60.92;100135.50;7395135;19;1169;-38
2024/01/03 11:57:33;;;;;;;;;;;;;;;19.22;60.69;100139.41;7394557;19;1492;-38
2024/01/03 12:00:05;;;;;;;;;;;;;;;19.04;61.44;100129.50;7390666;19;1741;-38
2024/01/03 12:02:33;;;;;;;;;;;;;;;19.15;61.19;100143.69;7390554;19;1535;-38
2024/01/03 12:05:00;;;;;;;;;;;;;;;19.08;61.47;100130.06;7388420;19;1330;-38
2024/01/03 12:07:29;;;;;;;;;;;;;;;18.98;62.07;100132.78;7393207;19;1459;-39
2024/01/03 12:09:59;;;;;;;;;;;;;;;18.95;62.02;100133.06;7390064;19;1863;-38
2024/01/03 12:12:28;;;;;;;;;;;;;;;18.99;61.93;100139.81;7391555;19;1599;-38
2024/01/03 12:14:56;;;;;;;;;;;;;;;18.97;61.96;100130.25;7391572;19;1659;-38
2024/01/03 12:17:32;;;;;;;;;;;;;;;18.94;62.06;100118.00;7392320;19;1268;-38
2024/01/03 12:20:10;;;;;;;;;;;;;;;18.92;61.86;100122.69;7393449;19;1418;-38
2024/01/03 12:22:38;;;;;;;;;;;;;;;18.98;61.88;100119.41;7393460;19;1334;-38
2024/01/03 12:25:07;;;;;;;;;;;;;;;18.92;61.70;100117.31;7395172;19;1117;-38
2024/01/03 12:27:35;;;;;;;;;;;;;;;18.94;61.60;100115.34;7394433;19;1867;-39
2024/01/03 12:30:14;;;;;;;;;;;;;;;18.91;61.92;100114.78;7393096;19;1895;-39
2024/01/03 12:32:45;;;;;;;;;;;;;;;18.88;61.81;100108.75;7395854;19;1519;-39
2024/01/03 12:35:13;;;;;;;;;;;;;;;18.95;61.61;100113.50;7391902;19;1793;-39
2024/01/03 12:37:46;;;;;;;;;;;;;;;19.00;61.42;100121.91;7381513;19;1023;-39
2024/01/03 12:40:17;;;;;;;;;;;;;;;18.93;61.68;100102.91;7394818;19;1816;-39
2024/01/03 12:42:47;;;;;;;;;;;;;;;18.96;61.65;100113.34;7395438;19;1505;-39
2024/01/03 12:45:15;;;;;;;;;;;;;;;18.97;61.47;100116.84;7395557;19;1682;-39
2024/01/03 12:47:46;;;;;;;;;;;;;;;18.94;61.68;100101.94;7396605;19;987;-39
2024/01/03 12:50:14;;;;;;;;;;;;;;;18.91;61.49;100120.16;7394518;19;1851;-39
2024/01/03 12:52:43;;;;;;;;;;;;;;;18.90;61.61;100092.53;7394948;19;1845;-39
2024/01/03 12:55:11;;;;;;;;;;;;;;;18.91;61.49;100094.19;7394712;19;1835;-38
2024/01/03 13:09:23;;;;;;;;;;;;;;;18.56;62.50;100085.06;6747487;19;10002695;-36